Terminal Aerodrome Forecast
Issued by NWS

Home | Current Version | Previous Version | Graphics & Text | Print | Product List | Glossary On
Versions: 1 2 3 4 5 6 7 8 9 10 11 12 13 14 15 16 17 18 19 20 21 22 23 24 25 26 27 28 29 30 31 32 33 34 35 36 37 38 39 40 41 42 43 44 45 46 47 48 49 50
000
FTUS43 KLOT 291451 AAA
TAFGYY
TAF AMD
KGYY 291451Z 2915/3012 02015G27KT P6SM BKN028 OVC040
     FM291700 03018G28KT P6SM -SHRA BKN025 OVC040
     FM292100 04020G28KT 3SM RA BR BKN009 OVC012
     FM300300 04020G30KT 3SM -DZRA BR OVC006=

USA.gov is the U.S. government's official web portal to all federal, state and local government web resources and services.